Weather observations for the past three days for
Angel Fire Airport
Metric (Imperial)
Date Time (mdt) Wind (kph) Vis. (km) Weather Sky Cond. Temperature (ºC) Relative Humidity Wind Chill (°C) Heat Index (°C) Pressure Precipitation (cm)
Air Dwpt 6 hour altimeter (cm) sea level (mb) 1 hr 3 hr 6 hr
Max. Min.
05 21:55 Calm 16.09 Mostly Cloudy BKN100 13.4 8.1 71% 77.19 0.0
05 21:35 SE 6 16.09 Overcast OVC100 13.5 8.5 72% 77.19 0.0
05 21:15 Calm 16.09 Partly Cloudy SCT100 13 8.3 73% 77.17 0.0
05 20:55 SE 9 16.09 Fair CLR 14.6 8.2 66% 77.17 0.0
05 20:35 Calm 16.09 Partly Cloudy SCT110 13 8.1 72% 77.14 0.0
05 20:15 Calm 16.09 Fair CLR 15 8.6 66% 77.14 0.0
05 19:55 Calm 16.09 Fair CLR 17 8.6 58% 77.11 0.0
05 19:35 Calm 16.09 Fair CLR 16.8 9 60% 77.09 0.0
05 19:15 S 6 16.09 Fair CLR 18.6 9.4 55% 77.09 0.0
05 18:55 Calm 16.09 Fair CLR 21.7 9.3 45% 77.09 0.0
05 18:35 Calm 16.09 Partly Cloudy SCT120 22.3 7.6 39% 77.09 0.0
05 18:15 Calm 16.09 Mostly Cloudy BKN120 23.2 8.3 39% 77.09 0.0
05 17:55 N 11 16.09 Partly Cloudy SCT075 SCT120 23 10.1 26 21.1 44% 77.09 0.0
05 17:35 N 19 16.09 Partly Cloudy SCT075 SCT100 24.1 9 38% 25 77.06 0.0
05 17:15 NE 15 16.09 Overcast SCT090 OVC110 23.3 9.1 41% 77.06 0.0
05 16:55 N 24 16.09 Mostly Cloudy BKN090 BKN110 21.3 9.3 46% 77.09 0.0
05 16:35 N 17 G 30 16.09 Partly Cloudy SCT085 22.8 9.9 44% 77.06 0.0
05 16:15 S 11 16.09 Partly Cloudy SCT095 SCT110 23.6 8.5 38% 77.04 0.0
05 15:55 S 19 16.09 Overcast SCT050 OVC095 23.2 7.1 36% 77.06 0.0
05 15:35 S 17 16.09 Mostly Cloudy SCT050 BKN075 BKN110 23.7 7.4 35% 77.06 0.0
05 15:15 S 24 16.09 Mostly Cloudy SCT075 BKN110 24.4 7.7 34% 25 77.09 0.0
05 14:55 S 19 16.09 Partly Cloudy SCT110 24.3 7.5 34% 25 77.09 0.0
05 14:35 S 20 G 30 16.09 Fair CLR 25.1 7 31% 25 77.11 0.0
05 14:15 S 22 G 31 16.09 Fair CLR 24 7.1 34% 25 77.14 0.0
05 13:55 SW 24 16.09 Partly Cloudy SCT075 24.7 6.6 31% 25 77.14 0.0
05 11:55 W 19 G 31 16.09 Partly Cloudy SCT120 23.9 7.7 24.1 8.7 36% 25 77.19 0.0
05 11:35 NW 15 G 26 16.09 Fair CLR 23.3 7.7 37% 77.19 0.0
05 11:15 SW 19 16.09 Fair CLR 23 8 38% 77.22 0.0
05 10:55 W 13 16.09 Partly Cloudy SCT120 22.4 9.2 43% 77.22 0.0
05 10:35 W 11 16.09 Mostly Cloudy BKN120 22 9.1 44% 77.22 0.0
05 10:15 SW 13 16.09 Fair CLR 21.9 9.5 45% 77.22 0.0
05 09:55 Calm 16.09 Fair CLR 20.1 9.9 52% 77.22 0.0
05 09:35 SW 6 16.09 Fair CLR 19.2 10.1 56% 77.22 0.0
05 09:15 Calm 16.09 Partly Cloudy SCT120 17.3 10.2 63% 77.24 0.0
05 08:55 Calm 16.09 Mostly Cloudy BKN120 16 10 68% 77.24 0.0
05 08:35 Calm 16.09 Partly Cloudy SCT120 14.8 10.2 74% 77.24 0.0
05 08:15 NE 6 16.09 Fair CLR 13.8 9.8 77% 77.22 0.0
05 07:55 Calm 16.09 Fair CLR 12.7 9.7 82% 77.22 0.0
05 07:35 Calm 16.09 Fair CLR 11.9 9.6 86% 77.22 0.0
05 07:15 SE 6 16.09 Fair CLR 9.7 8.9 95% 77.22 0.0
05 06:55 Calm 16.09 Partly Cloudy SCT100 10.8 9 89% 77.19 0.0
05 06:35 Calm 16.09 Overcast OVC100 10.9 9 88% 77.19 0.0
05 06:15 Calm 16.09 Overcast OVC100 10.6 9.4 92% 77.17 0.0
05 05:55 Calm 16.09 Overcast OVC100 11.1 9.4 17 8.6 89% 77.17 0.0
05 05:35 Calm 16.09 Overcast OVC100 10.5 9.3 92% 77.17 0.0
05 05:15 Calm 16.09 Overcast OVC100 11 9 88% 77.17 0.0
05 04:55 Calm 16.09 Overcast OVC100 10.5 9 91% 77.17 0.0
05 04:35 Calm 16.09 Overcast OVC100 10.6 8.7 88% 77.17 0.0
05 04:15 Calm 16.09 Mostly Cloudy BKN100 9.6 8.1 90% 77.17 0.0
05 03:55 Calm 16.09 Partly Cloudy SCT110 9.7 7.9 89% 77.14 0.0
05 03:35 Calm 16.09 Partly Cloudy SCT120 9.8 7.8 88% 77.17 0.0
05 03:15 Calm 16.09 Fair CLR 11.7 9 84% 77.14 0.0
05 02:55 Calm 16.09 Partly Cloudy SCT100 12.3 9.4 83% 77.14 0.0
05 02:35 Calm 16.09 Overcast OVC100 12.7 9.5 81% 77.14 0.0
05 02:15 Calm 16.09 Overcast OVC100 12.5 9.6 83% 77.17 0.0
05 01:55 Calm 16.09 Overcast OVC110 12.3 9.5 83% 77.17 0.0
05 01:35 Calm 16.09 Overcast OVC110 13.2 9 76% 77.19 0.0
05 01:15 Calm 16.09 Mostly Cloudy BKN110 13.1 9 76% 77.19 0.0
05 00:55 Calm 16.09 Partly Cloudy SCT110 12.7 8.9 78% 77.19 0.0
05 00:35 W 6 16.09 Partly Cloudy SCT110 15 9.2 68% 77.17 0.0
05 00:15 SE 6 16.09 Fair CLR 16.6 9.5 63% 77.19 0.0
04 23:55 SW 7 16.09 Fair CLR 16.9 9.3 23.9 15.8 61% 77.19 0.0
04 23:35 Calm 16.09 Fair CLR 17 9.1 60% 77.19 0.0
04 23:15 SE 7 16.09 Partly Cloudy SCT100 16.5 9 61% 77.19 0.0
04 22:55 S 9 16.09 Partly Cloudy SCT100 16.8 8.8 59% 77.19 0.0
04 22:35 W 15 16.09 Partly Cloudy SCT070 SCT090 17.1 8.7 58% 77.19 0.0
04 22:15 W 13 16.09 Overcast BKN070 OVC080 17.8 8.9 56% 77.19 0.0
04 21:55 S 9 16.09 Mostly Cloudy BKN075 BKN085 16.6 9.3 62% 77.22 0.0
04 21:35 Calm 16.09 Partly Cloudy SCT075 18.1 8.5 54% 77.19 0.0
04 21:15 S 6 16.09 Mostly Cloudy BKN075 16.6 9.2 62% 77.17 0.0
04 20:55 Calm 16.09 Mostly Cloudy SCT075 BKN085 15.8 9.3 66% 77.14 0.0
04 20:35 Calm 16.09 Mostly Cloudy BKN075 BKN085 17.5 9.1 58% 77.09 0.0
04 20:15 Calm 16.09 Overcast OVC075 18.8 8.2 50% 77.09 0.0
04 19:55 Calm 16.09 Partly Cloudy SCT075 16.7 8.6 59% 77.09 0.0
04 19:35 SW 9 16.09 Partly Cloudy SCT075 SCT095 18.7 8 50% 77.09 0.0
04 19:15 W 6 16.09 Mostly Cloudy SCT075 BKN095 20.1 7.8 45% 77.06 0.0
04 18:55 W 9 16.09 Mostly Cloudy BKN095 21.2 7.4 41% 77.04 0.0
04 18:35 W 13 16.09 Mostly Cloudy SCT070 BKN085 BKN110 21.7 7 39% 77.04 0.0
04 18:15 W 7 16.09 Overcast SCT070 OVC095 23.6 6.7 34% 77.01 0.0
04 17:55 NW 9 16.09 Overcast SCT070 OVC095 23.1 7.1 25.3 21.2 36% 77.01 0.0
04 17:35 W 15 16.09 Mostly Cloudy SCT070 BKN085 BKN100 23.7 7.2 35% 77.01 0.0
04 17:15 W 11 16.09 Partly Cloudy SCT070 SCT080 23.4 7.3 36% 77.01 0.0
04 16:55 W 9 G 15 16.09 Fair CLR 23.7 7.1 35% 77.01 0.0
04 16:35 W 17 16.09 Fair CLR 25.1 7.6 33% 26 76.99 0.0
04 16:15 W 19 16.09 Fair CLR 25 7.8 33% 25 77.01 0.0
04 15:55 NW 17 16.09 Fair CLR 25.3 8.4 34% 26 77.01 0.0
04 15:35 SW 7 16.09 Partly Cloudy SCT100 24.9 8 34% 25 77.04 0.0
04 15:15 SW 15 G 26 16.09 Partly Cloudy SCT100 24 8 36% 25 77.04 0.0
04 14:55 SW 17 16.09 Partly Cloudy SCT100 24.3 7.6 34% 25 77.06 0.0
04 14:35 Calm 16.09 Partly Cloudy SCT100 SCT120 22.8 7.7 38% 77.09 0.0
04 14:15 W 9 16.09 Partly Cloudy SCT120 23.3 8 38% 77.09 0.0
04 13:55 SW 15 16.09 Mostly Cloudy BKN120 22.2 8.3 41% 77.11 0.0
04 13:35 W 19 16.09 Mostly Cloudy SCT100 BKN120 22.6 7.6 38% 77.14 0.0
04 13:15 W 19 16.09 Partly Cloudy SCT065 SCT100 SCT120 22.3 8.5 41% 77.17 0.0
04 12:55 W 24 G 30 16.09 Overcast SCT065 OVC100 22 8.5 42% 77.14 0.0
04 12:35 W 15 G 26 16.09 Overcast BKN100 OVC120 21.5 8.3 43% 77.19 0.0
04 12:15 W 15 16.09 Mostly Cloudy BKN110 22.1 8.1 41% 77.19 0.0
04 11:55 W 13 16.09 Fair CLR 21.8 8.3 21.8 7.6 42% 77.19 0.0
04 11:35 W 22 16.09 Fair CLR 20.9 8 44% 77.19 0.0
04 11:15 NW 15 16.09 Partly Cloudy SCT090 21.6 8.9 44% 77.19 0.0
04 10:55 Calm 16.09 Fair CLR 21.1 9.2 47% 77.19 0.0
04 10:35 NW 11 16.09 Fair CLR 20 9.8 52% 77.19 0.0
04 10:15 W 13 16.09 Fair CLR 18.8 9.6 55% 77.19 0.0
04 09:55 NW 15 16.09 Fair CLR 17.9 9.9 60% 77.22 0.0
04 09:35 Calm 16.09 Fair CLR 16.9 9.8 63% 77.22 0.0
04 09:15 Calm 16.09 Fair CLR 15.9 9 64% 77.19 0.0
04 08:55 Calm 16.09 Partly Cloudy SCT110 12.6 9.1 79% 77.19 0.0
04 08:35 NW 6 16.09 Partly Cloudy SCT110 11.2 8.8 85% 77.19 0.0
04 08:15 Calm 16.09 Fair CLR 11 8.5 85% 77.19 0.0
04 07:55 E 6 16.09 Partly Cloudy SCT110 10.2 8.2 88% 77.17 0.0
04 07:35 Calm 16.09 Partly Cloudy SCT110 9.6 7.6 87% 77.17 0.0
04 07:15 Calm 16.09 Mostly Cloudy BKN100 8.3 7.3 94% 77.14 0.0
04 06:55 N 7 16.09 Fair CLR 8.2 6.7 90% 7 77.09 0.0
04 06:35 Calm 16.09 Mostly Cloudy SCT080 BKN100 9.1 7.1 87% 77.09 0.0
04 06:15 Calm 16.09 Light Drizzle BKN090 10 7.7 86% 77.09 0.0
04 05:55 Calm 16.09 Mostly Cloudy BKN100 9.1 7.1 14.1 8.5 87% 77.06 0.0
04 05:35 Calm 16.09 Mostly Cloudy BKN100 8.5 6.9 90% 77.09 0.0
04 05:15 Calm 16.09 Overcast SCT065 OVC100 9.8 7.5 86% 77.09 0.0
04 04:55 Calm 16.09 Mostly Cloudy BKN110 9.5 7.1 85% 77.09 0.0
04 04:35 Calm 16.09 Mostly Cloudy BKN100 9 6.9 87% 77.09 0.0
04 04:15 Calm 16.09 Partly Cloudy SCT090 9.3 7 86% 77.04 0.0
04 03:55 W 6 16.09 Partly Cloudy SCT090 9 6.9 87% 77.04 0.0
04 03:35 Calm 16.09 Partly Cloudy SCT090 10.9 7.5 80% 77.04 0.0
04 03:15 Calm 16.09 Mostly Cloudy BKN090 9.6 6.8 83% 77.04 0.0
04 02:55 Calm 16.09 Mostly Cloudy BKN090 11.9 7.5 75% 77.04 0.0
04 02:35 Calm 16.09 Overcast SCT070 OVC090 11.9 7.6 75% 77.04 0.0
04 02:15 Calm 16.09 Overcast OVC080 12.3 7.4 72% 77.04 0.0
04 01:55 Calm 16.09 Overcast OVC080 11.6 7.5 76% 77.09 0.0
04 01:35 W 6 16.09 Overcast OVC080 11.5 7.3 76% 77.09 0.0
04 01:15 Calm 16.09 Overcast OVC080 13.5 7.1 65% 77.06 0.0
04 00:55 W 6 16.09 Overcast OVC080 12.2 7.2 72% 77.09 0.0
04 00:35 SE 6 16.09 Partly Cloudy SCT080 12.6 7.2 70% 77.09 0.0
04 00:15 Calm 16.09 Fair CLR 12 7.4 74% 77.09 0.0
03 23:55 SW 6 16.09 Fair CLR 13.3 7.3 23.6 13.2 67% 77.06 0.0
03 23:35 Calm 16.09 Fair CLR 14.9 7.7 62% 77.06 0.0
03 23:15 Calm 16.09 Fair CLR 15.8 7.3 57% 77.06 0.0
03 22:55 S 9 16.09 Fair CLR 16.3 7.4 56% 77.09 0.0
03 22:35 S 7 16.09 Fair CLR 15.8 7.8 59% 77.09 0.0
03 22:15 Calm 16.09 Fair CLR 17.1 7 52% 77.09 0.0
03 21:55 S 11 16.09 Fair CLR 17 7.1 52% 77.11 0.0
03 21:35 W 20 G 30 16.09 Fair CLR 17.5 7.6 52% 77.09 0.0
03 21:15 W 17 G 26 16.09 Fair CLR 17.2 7.3 52% 77.09 0.0
03 20:55 W 19 16.09 Fair CLR 15.8 7 56% 77.09 0.0
03 20:35 W 6 16.09 Fair CLR 14.1 7.4 64% 77.04 0.0
03 20:15 Calm 16.09 Fair CLR 15.8 6.9 56% 77.01 0.0
03 19:55 Calm 16.09 Fair CLR 16.7 6.7 52% 77.01 0.0
03 19:35 W 6 16.09 Fair CLR 15.4 6.9 57% 76.99 0.0
03 19:15 W 7 16.09 Fair CLR 18.3 5.8 44% 76.99 0.0
03 18:55 W 7 16.09 Fair CLR 21.6 5.3 35% 76.99 0.0
03 18:35 W 7 16.09 Fair CLR 22.7 5.5 33% 76.96 0.0
03 18:15 W 11 16.09 Partly Cloudy SCT120 23.6 5 30% 76.99 0.0
03 17:55 W 11 G 26 16.09 Partly Cloudy SCT120 23.5 5.3 25 22.1 31% 76.99 0.0
03 17:35 W 20 G 26 16.09 Partly Cloudy SCT120 22.5 4.9 32% 76.99 0.0
03 17:15 W 22 G 30 16.09 Partly Cloudy SCT075 SCT120 24.4 4.8 28% 25 76.99 0.0
03 16:55 W 24 16.09 Partly Cloudy SCT075 SCT120 25 5.1 28% 25 76.99 0.0
03 16:35 W 11 16.09 Partly Cloudy SCT075 SCT120 24 5.6 31% 25 76.99 0.0
03 16:15 W 20 G 28 16.09 Mostly Cloudy SCT075 BKN120 24.5 5.9 30% 25 77.01 0.0
03 15:55 W 19 G 31 16.09 Mostly Cloudy BKN075 BKN090 BKN120 24 5.7 31% 25 77.01 0.0
03 15:35 W 20 G 31 16.09 Mostly Cloudy BKN075 BKN090 BKN120 24 6 31% 25 77.01 0.0
03 15:15 NW 20 G 30 16.09 Mostly Cloudy BKN075 24.1 6.6 33% 25 77.04 0.0
03 14:55 SW 19 G 35 16.09 Partly Cloudy SCT075 SCT100 24.7 6.4 31% 25 77.06 0.0
03 14:35 W 28 G 41 16.09 Partly Cloudy SCT075 SCT100 24.3 6.1 31% 25 77.06 0.0
03 14:15 W 28 G 43 16.09 Partly Cloudy SCT075 24.1 6.2 32% 25 77.09 0.0
03 13:55 W 20 G 39 16.09 Fair CLR 23.8 6 32% 77.09 0.0
03 13:35 W 26 G 43 16.09 Fair CLR 23.7 6.3 33% 77.09 0.0
03 13:15 W 24 G 37 16.09 Fair CLR 23.5 6.3 33% 77.11 0.0
03 12:55 W 22 G 35 16.09 Fair CLR 23 6.2 34% 77.14 0.0
03 12:35 W 20 G 41 16.09 Fair CLR 22.7 6.4 35% 77.17 0.0
03 12:15 SW 26 G 43 16.09 Fair CLR 22.3 5.6 34% 77.19 0.0
03 11:55 SW 28 G 41 16.09 Fair CLR 21.9 5.5 22.1 1.7 35% 77.19 0.0
03 11:35 SW 20 G 43 16.09 Fair CLR 21.9 5.3 34% 77.19 0.0
03 11:15 SW 22 G 35 16.09 Fair CLR 21.6 5.2 34% 77.19 0.0
03 10:55 SW 24 G 33 16.09 Fair CLR 21.1 4.2 33% 77.19 0.0
03 10:35 SW 17 G 30 16.09 Partly Cloudy SCT050 20.6 7.1 42% 77.19 0.0
03 10:15 W 15 G 26 16.09 Partly Cloudy SCT050 19.7 7.5 45% 77.19 0.0
03 09:55 W 17 16.09 Fair CLR 19.2 7.9 48% 77.19 0.0
03 09:35 W 22 16.09 Fair CLR 18.4 7.9 51% 77.19 0.0
03 09:15 S 9 16.09 Fair CLR 17.9 7.5 51% 77.19 0.0
03 08:55 S 9 16.09 Fair CLR 16.3 7.5 56% 77.19 0.0
03 08:35 Calm 16.09 Fair CLR 11.6 7.7 77% 77.19 0.0
03 08:15 Calm 16.09 Fair CLR 10.6 7 79% 77.19 0.0
03 07:55 Calm 16.09 Fair CLR 8.2 5.5 83% 77.19 0.0
03 07:35 Calm 16.09 Fair CLR 6.2 5.3 94% 77.17 0.0
03 07:15 Calm 16.09 Fair CLR 3.9 2.7 92% 77.17 0.0
03 06:55 Calm 16.09 Fair CLR 3.5 2.5 93% 77.17 0.0
03 06:35 Calm 16.09 Fair CLR 3.1 1.8 91% 77.17 0.0
03 06:15 Calm 16.09 Fair CLR 2.8 1.8 93% 77.14 0.0
03 05:55 Calm 16.09 Fair CLR 1.9 1 6.9 1.9 94% 77.14 0.0
03 05:35 Calm 16.09 Fair CLR 3.5 2.6 94% 77.14 0.0
03 05:15 Calm 16.09 Fair CLR 3.1 1.9 92% 77.11 0.0
03 04:55 Calm 16.09 Fair CLR 2.8 1.5 91% 77.14 0.0
03 04:35 Calm 16.09 Fair CLR 3.1 2.2 94% 77.14 0.0
03 04:15 Calm 16.09 Fair CLR 2.7 1.3 91% 77.11 0.0
03 03:55 Calm 16.09 Fair CLR 4.5 2.9 89% 77.14 0.0
03 03:35 Calm 16.09 Fair CLR 4 2 87% 77.14 0.0
03 03:15 S 6 16.09 Fair CLR 5 3.3 89% 77.14 0.0
03 02:55 Calm 16.09 Fair CLR 5.3 3.1 86% 77.14 0.0
03 02:35 Calm 16.09 Fair CLR 5 3 87% 77.14 0.0
03 02:15 Calm 16.09 Fair CLR 3.5 2.5 93% 77.14 0.0
03 01:55 Calm 16.09 Fair CLR 5 3.8 92% 77.14 0.0
03 01:35 Calm 16.09 Fair CLR 5.2 3.5 89% 77.14 0.0
03 01:15 Calm 16.09 Fair CLR 4.9 3.5 91% 77.14 0.0
03 00:55 Calm 16.09 Fair CLR 4.4 3.1 91% 77.14 0.0
03 00:35 Calm 16.09 Fair CLR 6.2 4.3 88% 77.14 0.0
03 00:15 Calm 16.09 Fair CLR 6.8 4.1 83% 77.14 0.0
02 23:55 Calm 16.09 Fair CLR 6.1 3.4 22.8 5.6 83% 77.14 0.0
02 23:35 Calm 16.09 Fair CLR 6.2 4.2 87% 77.14 0.0
02 23:15 SE 6 16.09 Fair CLR 7.7 4.6 81% 77.17 0.0
02 22:55 Calm 16.09 Fair CLR 8.1 4.6 79% 77.14 0.0
02 22:35 Calm 16.09 Fair CLR 8.2 5.4 83% 77.17 0.0
02 22:15 Calm 16.09 Fair CLR 7.5 4.8 83% 77.14 0.0
Date Time (mdt) Wind (kph) Vis. (km) Weather Sky Cond. Air Dwpt Max. Min. Relative Humidity Wind Chill (°C) Heat Index (°C) altimeter (cm) sea level (mb) 1 hr 3 hr 6 hr
6 hour
Temperature (ºC) Pressure Precipitation (cm)